sensor_id;sensor_type;location;lat;lon;timestamp;temperature;humidity
50067;DHT22;35952;52.524;13.340;2024-01-07T00:02:23;0.20;99.90
50067;DHT22;35952;52.524;13.340;2024-01-07T00:04:49;0.10;99.90
50067;DHT22;35952;52.524;13.340;2024-01-07T00:07:14;-0.10;99.90
50067;DHT22;35952;52.524;13.340;2024-01-07T00:09:40;0.10;99.90
50067;DHT22;35952;52.524;13.340;2024-01-07T00:12:06;0.10;99.90
50067;DHT22;35952;52.524;13.340;2024-01-07T00:14:31;0.00;99.90
50067;DHT22;35952;52.524;13.340;2024-01-07T00:16:57;-0.10;99.90
50067;DHT22;35952;52.524;13.340;2024-01-07T00:19:23;-0.10;99.90
50067;DHT22;35952;52.524;13.340;2024-01-07T00:21:49;0.00;99.90
50067;DHT22;35952;52.524;13.340;2024-01-07T00:24:15;-0.10;99.90
50067;DHT22;35952;52.524;13.340;2024-01-07T00:26:41;0.00;99.90
50067;DHT22;35952;52.524;13.340;2024-01-07T00:29:06;0.00;99.90
50067;DHT22;35952;52.524;13.340;2024-01-07T00:31:32;-0.10;99.90
50067;DHT22;35952;52.524;13.340;2024-01-07T00:33:57;-0.10;99.90
50067;DHT22;35952;52.524;13.340;2024-01-07T00:36:23;-0.20;99.90
50067;DHT22;35952;52.524;13.340;2024-01-07T00:38:48;-0.30;99.90
50067;DHT22;35952;52.524;13.340;2024-01-07T00:41:14;-0.20;99.90
50067;DHT22;35952;52.524;13.340;2024-01-07T00:43:39;-0.20;99.90
50067;DHT22;35952;52.524;13.340;2024-01-07T00:46:06;-0.40;99.90
50067;DHT22;35952;52.524;13.340;2024-01-07T00:48:31;-0.30;99.90
50067;DHT22;35952;52.524;13.340;2024-01-07T00:50:57;-0.30;99.90
50067;DHT22;35952;52.524;13.340;2024-01-07T00:53:22;-0.20;99.90
50067;DHT22;35952;52.524;13.340;2024-01-07T00:55:48;-0.30;99.90
50067;DHT22;35952;52.524;13.340;2024-01-07T00:58:13;-0.30;99.90
50067;DHT22;35952;52.524;13.340;2024-01-07T01:00:39;-0.20;99.90
50067;DHT22;35952;52.524;13.340;2024-01-07T01:03:04;-0.20;99.90
50067;DHT22;35952;52.524;13.340;2024-01-07T01:05:30;-0.30;99.90
50067;DHT22;35952;52.524;13.340;2024-01-07T01:07:55;-0.30;99.90
50067;DHT22;35952;52.524;13.340;2024-01-07T01:10:21;-0.20;99.90
50067;DHT22;35952;52.524;13.340;2024-01-07T01:12:47;-0.30;99.90
50067;DHT22;35952;52.524;13.340;2024-01-07T01:15:13;-0.30;99.90
50067;DHT22;35952;52.524;13.340;2024-01-07T01:17:38;-0.30;99.90
50067;DHT22;35952;52.524;13.340;2024-01-07T01:20:04;-0.40;99.90
50067;DHT22;35952;52.524;13.340;2024-01-07T01:22:30;-0.40;99.90
50067;DHT22;35952;52.524;13.340;2024-01-07T01:24:55;-0.50;99.90
50067;DHT22;35952;52.524;13.340;2024-01-07T01:27:21;-0.40;99.90
50067;DHT22;35952;52.524;13.340;2024-01-07T01:29:47;-0.50;99.90
50067;DHT22;35952;52.524;13.340;2024-01-07T01:32:12;-0.60;99.90
50067;DHT22;35952;52.524;13.340;2024-01-07T01:34:40;-0.60;99.90
50067;DHT22;35952;52.524;13.340;2024-01-07T01:37:07;-0.60;99.90
50067;DHT22;35952;52.524;13.340;2024-01-07T01:39:33;-0.60;99.90
50067;DHT22;35952;52.524;13.340;2024-01-07T01:41:58;-0.60;99.90
50067;DHT22;35952;52.524;13.340;2024-01-07T01:44:24;-0.50;99.90
50067;DHT22;35952;52.524;13.340;2024-01-07T01:46:50;-0.60;99.90
50067;DHT22;35952;52.524;13.340;2024-01-07T01:49:15;-0.60;99.90
50067;DHT22;35952;52.524;13.340;2024-01-07T01:51:41;-0.70;99.90
50067;DHT22;35952;52.524;13.340;2024-01-07T01:54:07;-0.60;99.90
50067;DHT22;35952;52.524;13.340;2024-01-07T01:56:33;-0.70;99.90
50067;DHT22;35952;52.524;13.340;2024-01-07T01:58:59;-0.70;99.90
50067;DHT22;35952;52.524;13.340;2024-01-07T02:01:25;-0.80;99.90
50067;DHT22;35952;52.524;13.340;2024-01-07T02:03:50;-0.70;99.90
50067;DHT22;35952;52.524;13.340;2024-01-07T02:06:18;-0.70;99.90
50067;DHT22;35952;52.524;13.340;2024-01-07T02:08:43;-0.90;99.90
50067;DHT22;35952;52.524;13.340;2024-01-07T02:11:22;-0.80;99.90
50067;DHT22;35952;52.524;13.340;2024-01-07T02:13:48;-0.80;99.90
50067;DHT22;35952;52.524;13.340;2024-01-07T02:16:14;-0.80;99.90
50067;DHT22;35952;52.524;13.340;2024-01-07T02:18:41;-0.80;99.90
50067;DHT22;35952;52.524;13.340;2024-01-07T02:21:08;-0.90;99.90
50067;DHT22;35952;52.524;13.340;2024-01-07T02:23:34;-0.90;99.90
50067;DHT22;35952;52.524;13.340;2024-01-07T02:26:00;-1.00;99.90
50067;DHT22;35952;52.524;13.340;2024-01-07T02:28:25;-1.00;99.90
50067;DHT22;35952;52.524;13.340;2024-01-07T02:30:51;-1.00;99.90
50067;DHT22;35952;52.524;13.340;2024-01-07T02:33:16;-1.10;99.90
50067;DHT22;35952;52.524;13.340;2024-01-07T02:35:42;-1.10;99.90
50067;DHT22;35952;52.524;13.340;2024-01-07T02:38:07;-1.20;99.90
50067;DHT22;35952;52.524;13.340;2024-01-07T02:40:33;-1.20;99.90
50067;DHT22;35952;52.524;13.340;2024-01-07T02:42:58;-1.20;99.90
50067;DHT22;35952;52.524;13.340;2024-01-07T02:45:24;-1.30;99.90
50067;DHT22;35952;52.524;13.340;2024-01-07T02:47:50;-1.40;99.90
50067;DHT22;35952;52.524;13.340;2024-01-07T02:50:15;-1.50;99.90
50067;DHT22;35952;52.524;13.340;2024-01-07T02:52:41;-1.50;99.90
50067;DHT22;35952;52.524;13.340;2024-01-07T02:55:08;-1.40;99.90
50067;DHT22;35952;52.524;13.340;2024-01-07T02:57:33;-1.50;99.90
50067;DHT22;35952;52.524;13.340;2024-01-07T02:59:59;-1.50;99.90
50067;DHT22;35952;52.524;13.340;2024-01-07T03:02:24;-1.60;99.90
50067;DHT22;35952;52.524;13.340;2024-01-07T03:04:50;-1.60;99.90
50067;DHT22;35952;52.524;13.340;2024-01-07T03:07:15;-1.60;99.90
50067;DHT22;35952;52.524;13.340;2024-01-07T03:09:41;-1.60;99.90
50067;DHT22;35952;52.524;13.340;2024-01-07T03:12:06;-1.70;99.90
50067;DHT22;35952;52.524;13.340;2024-01-07T03:14:32;-1.70;99.90
50067;DHT22;35952;52.524;13.340;2024-01-07T03:16:57;-1.70;99.90
50067;DHT22;35952;52.524;13.340;2024-01-07T03:19:23;-1.70;99.90
50067;DHT22;35952;52.524;13.340;2024-01-07T03:21:49;-1.60;99.90
50067;DHT22;35952;52.524;13.340;2024-01-07T03:24:14;-1.70;99.90
50067;DHT22;35952;52.524;13.340;2024-01-07T03:26:40;-1.80;99.90
50067;DHT22;35952;52.524;13.340;2024-01-07T03:29:05;-1.80;99.90
50067;DHT22;35952;52.524;13.340;2024-01-07T03:31:31;-1.80;99.90
50067;DHT22;35952;52.524;13.340;2024-01-07T03:33:57;-1.70;99.90
50067;DHT22;35952;52.524;13.340;2024-01-07T03:36:22;-1.70;99.90
50067;DHT22;35952;52.524;13.340;2024-01-07T03:38:48;-1.70;99.90
50067;DHT22;35952;52.524;13.340;2024-01-07T03:41:18;-1.80;99.90
50067;DHT22;35952;52.524;13.340;2024-01-07T03:43:44;-1.80;99.90
50067;DHT22;35952;52.524;13.340;2024-01-07T03:46:10;-1.80;99.90
50067;DHT22;35952;52.524;13.340;2024-01-07T03:48:36;-1.80;99.90
50067;DHT22;35952;52.524;13.340;2024-01-07T03:51:02;-1.80;99.90
50067;DHT22;35952;52.524;13.340;2024-01-07T03:53:27;-1.80;99.90
50067;DHT22;35952;52.524;13.340;2024-01-07T03:55:53;-1.80;99.90
50067;DHT22;35952;52.524;13.340;2024-01-07T03:58:18;-1.80;99.90
50067;DHT22;35952;52.524;13.340;2024-01-07T04:00:44;-1.80;99.90
50067;DHT22;35952;52.524;13.340;2024-01-07T04:03:09;-1.90;99.90
50067;DHT22;35952;52.524;13.340;2024-01-07T04:05:35;-1.80;99.90
50067;DHT22;35952;52.524;13.340;2024-01-07T04:08:02;-1.80;99.90
50067;DHT22;35952;52.524;13.340;2024-01-07T04:10:28;-1.90;99.90
50067;DHT22;35952;52.524;13.340;2024-01-07T04:12:53;-1.90;99.90
50067;DHT22;35952;52.524;13.340;2024-01-07T04:15:19;-2.00;99.90
50067;DHT22;35952;52.524;13.340;2024-01-07T04:17:45;-2.00;99.90
50067;DHT22;35952;52.524;13.340;2024-01-07T04:20:13;-2.00;99.90
50067;DHT22;35952;52.524;13.340;2024-01-07T04:22:38;-2.00;99.90
50067;DHT22;35952;52.524;13.340;2024-01-07T04:25:04;-1.90;99.90
50067;DHT22;35952;52.524;13.340;2024-01-07T04:27:34;-1.90;99.90
50067;DHT22;35952;52.524;13.340;2024-01-07T04:30:00;-1.90;99.90
50067;DHT22;35952;52.524;13.340;2024-01-07T04:32:26;-2.00;99.90
50067;DHT22;35952;52.524;13.340;2024-01-07T04:34:51;-2.00;99.90
50067;DHT22;35952;52.524;13.340;2024-01-07T04:37:17;-2.00;99.90
50067;DHT22;35952;52.524;13.340;2024-01-07T04:39:42;-2.00;99.90
50067;DHT22;35952;52.524;13.340;2024-01-07T04:42:08;-2.20;99.90
50067;DHT22;35952;52.524;13.340;2024-01-07T04:44:33;-2.10;99.90
50067;DHT22;35952;52.524;13.340;2024-01-07T04:46:59;-2.10;99.90
50067;DHT22;35952;52.524;13.340;2024-01-07T04:49:24;-2.00;99.90
50067;DHT22;35952;52.524;13.340;2024-01-07T04:51:50;-2.00;99.90
50067;DHT22;35952;52.524;13.340;2024-01-07T04:54:15;-2.00;99.90
50067;DHT22;35952;52.524;13.340;2024-01-07T04:56:41;-1.90;99.90
50067;DHT22;35952;52.524;13.340;2024-01-07T04:59:06;-2.00;99.90
50067;DHT22;35952;52.524;13.340;2024-01-07T05:01:33;-2.00;99.90
50067;DHT22;35952;52.524;13.340;2024-01-07T05:03:59;-2.10;99.90
50067;DHT22;35952;52.524;13.340;2024-01-07T05:06:24;-2.10;99.90
50067;DHT22;35952;52.524;13.340;2024-01-07T05:08:50;-2.10;99.90
50067;DHT22;35952;52.524;13.340;2024-01-07T05:11:15;-2.00;99.90
50067;DHT22;35952;52.524;13.340;2024-01-07T05:13:42;-2.10;99.90
50067;DHT22;35952;52.524;13.340;2024-01-07T05:16:08;-2.00;99.90
50067;DHT22;35952;52.524;13.340;2024-01-07T05:18:33;-1.80;99.90
50067;DHT22;35952;52.524;13.340;2024-01-07T05:20:59;-1.90;99.90
50067;DHT22;35952;52.524;13.340;2024-01-07T05:23:24;-1.90;99.90
50067;DHT22;35952;52.524;13.340;2024-01-07T05:25:50;-1.90;99.90
50067;DHT22;35952;52.524;13.340;2024-01-07T05:28:15;-1.80;99.90
50067;DHT22;35952;52.524;13.340;2024-01-07T05:30:44;-1.70;99.90
50067;DHT22;35952;52.524;13.340;2024-01-07T05:33:10;-1.70;99.90
50067;DHT22;35952;52.524;13.340;2024-01-07T05:35:35;-1.60;99.90
50067;DHT22;35952;52.524;13.340;2024-01-07T05:38:01;-1.60;99.90
50067;DHT22;35952;52.524;13.340;2024-01-07T05:40:27;-1.50;99.90
50067;DHT22;35952;52.524;13.340;2024-01-07T05:42:52;-1.60;99.90
50067;DHT22;35952;52.524;13.340;2024-01-07T05:45:18;-1.50;99.90
50067;DHT22;35952;52.524;13.340;2024-01-07T05:47:43;-1.50;99.90
50067;DHT22;35952;52.524;13.340;2024-01-07T05:50:09;-1.50;99.90
50067;DHT22;35952;52.524;13.340;2024-01-07T05:52:36;-1.60;99.90
50067;DHT22;35952;52.524;13.340;2024-01-07T05:55:01;-1.60;99.90
50067;DHT22;35952;52.524;13.340;2024-01-07T05:57:27;-1.70;99.90
50067;DHT22;35952;52.524;13.340;2024-01-07T05:59:52;-1.60;99.90
50067;DHT22;35952;52.524;13.340;2024-01-07T06:02:18;-1.50;99.90
50067;DHT22;35952;52.524;13.340;2024-01-07T06:04:43;-1.40;99.90
50067;DHT22;35952;52.524;13.340;2024-01-07T06:07:09;-1.60;99.90
50067;DHT22;35952;52.524;13.340;2024-01-07T06:09:34;-1.50;99.90
50067;DHT22;35952;52.524;13.340;2024-01-07T06:12:00;-1.40;99.90
50067;DHT22;35952;52.524;13.340;2024-01-07T06:14:26;-1.40;99.90
50067;DHT22;35952;52.524;13.340;2024-01-07T06:16:52;-1.40;99.90
50067;DHT22;35952;52.524;13.340;2024-01-07T06:19:18;-1.40;99.90
50067;DHT22;35952;52.524;13.340;2024-01-07T06:21:43;-1.40;99.90
50067;DHT22;35952;52.524;13.340;2024-01-07T06:24:09;-1.30;99.90
50067;DHT22;35952;52.524;13.340;2024-01-07T06:26:34;-1.40;99.90
50067;DHT22;35952;52.524;13.340;2024-01-07T06:29:00;-1.30;99.90
50067;DHT22;35952;52.524;13.340;2024-01-07T06:31:26;-1.40;99.90
50067;DHT22;35952;52.524;13.340;2024-01-07T06:33:52;-1.20;99.90
50067;DHT22;35952;52.524;13.340;2024-01-07T06:36:18;-1.20;99.90
50067;DHT22;35952;52.524;13.340;2024-01-07T06:38:43;-1.20;99.90
50067;DHT22;35952;52.524;13.340;2024-01-07T06:41:12;-1.20;99.90
50067;DHT22;35952;52.524;13.340;2024-01-07T06:43:38;-1.20;99.90
50067;DHT22;35952;52.524;13.340;2024-01-07T06:46:04;-1.20;99.90
50067;DHT22;35952;52.524;13.340;2024-01-07T06:48:30;-1.20;99.90
50067;DHT22;35952;52.524;13.340;2024-01-07T06:50:55;-1.20;99.90
50067;DHT22;35952;52.524;13.340;2024-01-07T06:53:21;-1.40;99.90
50067;DHT22;35952;52.524;13.340;2024-01-07T06:55:47;-1.50;99.90
50067;DHT22;35952;52.524;13.340;2024-01-07T06:58:12;-1.40;99.90
50067;DHT22;35952;52.524;13.340;2024-01-07T07:00:38;-1.30;99.90
50067;DHT22;35952;52.524;13.340;2024-01-07T07:03:03;-1.40;99.90
50067;DHT22;35952;52.524;13.340;2024-01-07T07:05:30;-1.40;99.90
50067;DHT22;35952;52.524;13.340;2024-01-07T07:07:56;-1.40;99.90
50067;DHT22;35952;52.524;13.340;2024-01-07T07:10:21;-1.30;99.90
50067;DHT22;35952;52.524;13.340;2024-01-07T07:12:47;-1.50;99.90
50067;DHT22;35952;52.524;13.340;2024-01-07T07:15:12;-1.50;99.90
50067;DHT22;35952;52.524;13.340;2024-01-07T07:17:38;-1.40;99.90
50067;DHT22;35952;52.524;13.340;2024-01-07T07:20:05;-1.30;99.90
50067;DHT22;35952;52.524;13.340;2024-01-07T07:22:31;-1.30;99.90
50067;DHT22;35952;52.524;13.340;2024-01-07T07:24:56;-1.20;99.90
50067;DHT22;35952;52.524;13.340;2024-01-07T07:27:22;-1.20;99.90
50067;DHT22;35952;52.524;13.340;2024-01-07T07:29:47;-1.20;99.90
50067;DHT22;35952;52.524;13.340;2024-01-07T07:32:13;-1.30;99.90
50067;DHT22;35952;52.524;13.340;2024-01-07T07:34:38;-1.20;99.90
50067;DHT22;35952;52.524;13.340;2024-01-07T07:37:04;-1.10;99.90
50067;DHT22;35952;52.524;13.340;2024-01-07T07:39:29;-1.20;99.90
50067;DHT22;35952;52.524;13.340;2024-01-07T07:41:55;-1.10;99.90
50067;DHT22;35952;52.524;13.340;2024-01-07T07:44:20;-1.10;99.90
50067;DHT22;35952;52.524;13.340;2024-01-07T07:46:46;-1.10;99.90
50067;DHT22;35952;52.524;13.340;2024-01-07T07:49:11;-1.00;99.90
50067;DHT22;35952;52.524;13.340;2024-01-07T07:51:37;-1.10;99.90
50067;DHT22;35952;52.524;13.340;2024-01-07T07:54:02;-1.10;99.90
50067;DHT22;35952;52.524;13.340;2024-01-07T07:56:28;-1.20;99.90
50067;DHT22;35952;52.524;13.340;2024-01-07T07:58:54;-1.30;99.90
50067;DHT22;35952;52.524;13.340;2024-01-07T08:01:20;-1.50;99.90
50067;DHT22;35952;52.524;13.340;2024-01-07T08:03:45;-1.40;99.90
50067;DHT22;35952;52.524;13.340;2024-01-07T08:06:11;-1.40;99.90
50067;DHT22;35952;52.524;13.340;2024-01-07T08:08:36;-1.20;99.90
50067;DHT22;35952;52.524;13.340;2024-01-07T08:11:02;-1.00;99.90
50067;DHT22;35952;52.524;13.340;2024-01-07T08:13:27;-0.70;99.90
50067;DHT22;35952;52.524;13.340;2024-01-07T08:15:53;-0.60;99.90
50067;DHT22;35952;52.524;13.340;2024-01-07T08:18:18;-0.70;99.90
50067;DHT22;35952;52.524;13.340;2024-01-07T08:20:44;-0.70;99.90
50067;DHT22;35952;52.524;13.340;2024-01-07T08:23:09;-0.70;99.90
50067;DHT22;35952;52.524;13.340;2024-01-07T08:25:35;-0.70;99.90
50067;DHT22;35952;52.524;13.340;2024-01-07T08:28:01;-0.70;99.90
50067;DHT22;35952;52.524;13.340;2024-01-07T08:30:26;-0.70;99.90
50067;DHT22;35952;52.524;13.340;2024-01-07T08:32:52;-0.70;99.90
50067;DHT22;35952;52.524;13.340;2024-01-07T08:35:17;-0.80;99.90
50067;DHT22;35952;52.524;13.340;2024-01-07T08:37:43;-0.60;99.90
50067;DHT22;35952;52.524;13.340;2024-01-07T08:40:10;-0.40;99.90
50067;DHT22;35952;52.524;13.340;2024-01-07T08:42:36;-0.40;99.90
50067;DHT22;35952;52.524;13.340;2024-01-07T08:45:01;-0.30;99.90
50067;DHT22;35952;52.524;13.340;2024-01-07T08:47:29;-0.30;99.90
50067;DHT22;35952;52.524;13.340;2024-01-07T08:49:56;-0.40;99.90
50067;DHT22;35952;52.524;13.340;2024-01-07T08:52:22;-0.50;99.90
50067;DHT22;35952;52.524;13.340;2024-01-07T08:54:47;-0.50;99.90
50067;DHT22;35952;52.524;13.340;2024-01-07T08:57:13;-0.50;99.90
50067;DHT22;35952;52.524;13.340;2024-01-07T08:59:38;-0.20;99.90
50067;DHT22;35952;52.524;13.340;2024-01-07T09:02:04;-0.20;99.90
50067;DHT22;35952;52.524;13.340;2024-01-07T09:04:30;-0.20;99.90
50067;DHT22;35952;52.524;13.340;2024-01-07T09:06:55;-0.10;99.90
50067;DHT22;35952;52.524;13.340;2024-01-07T09:09:21;-0.10;99.90
50067;DHT22;35952;52.524;13.340;2024-01-07T09:11:46;-0.10;99.90
50067;DHT22;35952;52.524;13.340;2024-01-07T09:14:12;-0.30;99.90
50067;DHT22;35952;52.524;13.340;2024-01-07T09:16:40;-0.20;99.90
50067;DHT22;35952;52.524;13.340;2024-01-07T09:19:05;0.00;99.90
50067;DHT22;35952;52.524;13.340;2024-01-07T09:21:30;0.00;99.90
50067;DHT22;35952;52.524;13.340;2024-01-07T09:23:56;0.10;99.90
50067;DHT22;35952;52.524;13.340;2024-01-07T09:26:21;0.00;99.90
50067;DHT22;35952;52.524;13.340;2024-01-07T09:28:47;0.10;99.90
50067;DHT22;35952;52.524;13.340;2024-01-07T09:31:13;0.10;99.90
50067;DHT22;35952;52.524;13.340;2024-01-07T09:33:38;0.10;99.90
50067;DHT22;35952;52.524;13.340;2024-01-07T09:36:04;0.10;99.90
50067;DHT22;35952;52.524;13.340;2024-01-07T09:38:29;0.10;99.90
50067;DHT22;35952;52.524;13.340;2024-01-07T09:40:55;0.10;99.90
50067;DHT22;35952;52.524;13.340;2024-01-07T09:43:20;0.10;99.90
50067;DHT22;35952;52.524;13.340;2024-01-07T09:45:47;0.10;99.90
50067;DHT22;35952;52.524;13.340;2024-01-07T09:48:15;0.00;99.90
50067;DHT22;35952;52.524;13.340;2024-01-07T09:50:41;0.00;99.90
50067;DHT22;35952;52.524;13.340;2024-01-07T09:53:07;0.00;99.90
50067;DHT22;35952;52.524;13.340;2024-01-07T09:55:51;0.00;99.90
50067;DHT22;35952;52.524;13.340;2024-01-07T09:58:17;-0.10;99.90
50067;DHT22;35952;52.524;13.340;2024-01-07T10:00:43;-0.20;99.90
50067;DHT22;35952;52.524;13.340;2024-01-07T10:03:08;-0.20;99.90
50067;DHT22;35952;52.524;13.340;2024-01-07T10:05:34;-0.20;99.90
50067;DHT22;35952;52.524;13.340;2024-01-07T10:08:00;-0.10;99.90
50067;DHT22;35952;52.524;13.340;2024-01-07T10:10:26;-0.10;99.90
50067;DHT22;35952;52.524;13.340;2024-01-07T10:12:52;0.00;99.90
50067;DHT22;35952;52.524;13.340;2024-01-07T10:15:18;0.00;99.90
50067;DHT22;35952;52.524;13.340;2024-01-07T10:17:45;0.00;99.90
50067;DHT22;35952;52.524;13.340;2024-01-07T10:20:11;0.00;99.90
50067;DHT22;35952;52.524;13.340;2024-01-07T10:22:37;0.00;99.90
50067;DHT22;35952;52.524;13.340;2024-01-07T10:25:06;0.00;99.90
50067;DHT22;35952;52.524;13.340;2024-01-07T10:27:35;0.10;99.90
50067;DHT22;35952;52.524;13.340;2024-01-07T10:30:02;0.20;99.90
50067;DHT22;35952;52.524;13.340;2024-01-07T10:32:28;0.20;99.90
50067;DHT22;35952;52.524;13.340;2024-01-07T10:35:04;0.20;99.90
50067;DHT22;35952;52.524;13.340;2024-01-07T10:37:30;0.20;99.90
50067;DHT22;35952;52.524;13.340;2024-01-07T10:39:59;0.30;99.90
50067;DHT22;35952;52.524;13.340;2024-01-07T10:42:31;0.20;99.90
50067;DHT22;35952;52.524;13.340;2024-01-07T10:44:57;0.30;99.90
50067;DHT22;35952;52.524;13.340;2024-01-07T10:47:23;0.30;99.90
50067;DHT22;35952;52.524;13.340;2024-01-07T10:49:52;0.20;99.90
50067;DHT22;35952;52.524;13.340;2024-01-07T10:52:19;0.30;99.90
50067;DHT22;35952;52.524;13.340;2024-01-07T10:54:47;0.40;99.90
50067;DHT22;35952;52.524;13.340;2024-01-07T10:57:27;0.30;99.90
50067;DHT22;35952;52.524;13.340;2024-01-07T10:59:56;0.50;99.90
50067;DHT22;35952;52.524;13.340;2024-01-07T11:02:23;0.50;99.90
50067;DHT22;35952;52.524;13.340;2024-01-07T11:05:05;0.50;99.90
50067;DHT22;35952;52.524;13.340;2024-01-07T11:07:42;0.60;99.90
50067;DHT22;35952;52.524;13.340;2024-01-07T11:10:20;0.60;99.90
50067;DHT22;35952;52.524;13.340;2024-01-07T11:12:54;0.60;99.90
50067;DHT22;35952;52.524;13.340;2024-01-07T11:18:20;0.60;99.90
50067;DHT22;35952;52.524;13.340;2024-01-07T11:20:47;0.60;99.90
50067;DHT22;35952;52.524;13.340;2024-01-07T11:23:32;0.60;99.90
50067;DHT22;35952;52.524;13.340;2024-01-07T11:26:02;0.60;99.90
50067;DHT22;35952;52.524;13.340;2024-01-07T11:31:08;0.50;99.90
50067;DHT22;35952;52.524;13.340;2024-01-07T11:33:36;0.50;99.90
50067;DHT22;35952;52.524;13.340;2024-01-07T11:36:03;0.50;99.90
50067;DHT22;35952;52.524;13.340;2024-01-07T11:38:30;0.50;99.90
50067;DHT22;35952;52.524;13.340;2024-01-07T11:40:56;0.50;99.90
50067;DHT22;35952;52.524;13.340;2024-01-07T11:43:22;0.60;99.90
50067;DHT22;35952;52.524;13.340;2024-01-07T11:45:51;0.60;99.90
50067;DHT22;35952;52.524;13.340;2024-01-07T11:48:18;0.70;99.90
50067;DHT22;35952;52.524;13.340;2024-01-07T11:50:44;0.70;99.90
50067;DHT22;35952;52.524;13.340;2024-01-07T11:53:11;0.70;99.90
50067;DHT22;35952;52.524;13.340;2024-01-07T11:55:37;0.70;99.90
50067;DHT22;35952;52.524;13.340;2024-01-07T11:58:03;0.70;99.90
50067;DHT22;35952;52.524;13.340;2024-01-07T12:00:35;0.70;99.90
50067;DHT22;35952;52.524;13.340;2024-01-07T12:03:01;0.70;99.90
50067;DHT22;35952;52.524;13.340;2024-01-07T12:05:27;0.70;99.90
50067;DHT22;35952;52.524;13.340;2024-01-07T12:07:53;0.70;99.90
50067;DHT22;35952;52.524;13.340;2024-01-07T12:10:19;0.70;99.90
50067;DHT22;35952;52.524;13.340;2024-01-07T12:12:45;0.70;99.90
50067;DHT22;35952;52.524;13.340;2024-01-07T12:15:11;0.70;99.90
50067;DHT22;35952;52.524;13.340;2024-01-07T12:17:40;0.70;99.90
50067;DHT22;35952;52.524;13.340;2024-01-07T12:20:12;0.80;99.90
50067;DHT22;35952;52.524;13.340;2024-01-07T12:22:40;0.80;99.90
50067;DHT22;35952;52.524;13.340;2024-01-07T12:25:06;0.70;99.90
50067;DHT22;35952;52.524;13.340;2024-01-07T12:27:33;0.80;99.90
50067;DHT22;35952;52.524;13.340;2024-01-07T12:29:59;0.80;99.90
50067;DHT22;35952;52.524;13.340;2024-01-07T12:32:30;0.70;99.90
50067;DHT22;35952;52.524;13.340;2024-01-07T12:34:59;0.70;99.90
50067;DHT22;35952;52.524;13.340;2024-01-07T12:37:27;0.70;99.90
50067;DHT22;35952;52.524;13.340;2024-01-07T12:39:53;0.70;99.90
50067;DHT22;35952;52.524;13.340;2024-01-07T12:42:18;0.80;99.90
50067;DHT22;35952;52.524;13.340;2024-01-07T12:44:45;0.90;99.90
50067;DHT22;35952;52.524;13.340;2024-01-07T12:47:11;0.90;99.90
50067;DHT22;35952;52.524;13.340;2024-01-07T12:49:36;0.90;99.90
50067;DHT22;35952;52.524;13.340;2024-01-07T12:52:02;1.00;99.90
50067;DHT22;35952;52.524;13.340;2024-01-07T12:54:27;1.00;99.90
50067;DHT22;35952;52.524;13.340;2024-01-07T12:56:53;0.90;99.90
50067;DHT22;35952;52.524;13.340;2024-01-07T12:59:18;0.80;99.90
50067;DHT22;35952;52.524;13.340;2024-01-07T13:01:44;0.90;99.90
50067;DHT22;35952;52.524;13.340;2024-01-07T13:04:09;0.90;99.90
50067;DHT22;35952;52.524;13.340;2024-01-07T13:06:35;0.90;99.90
50067;DHT22;35952;52.524;13.340;2024-01-07T13:09:01;0.90;99.90
50067;DHT22;35952;52.524;13.340;2024-01-07T13:11:29;0.90;99.90
50067;DHT22;35952;52.524;13.340;2024-01-07T13:13:55;0.90;99.90
50067;DHT22;35952;52.524;13.340;2024-01-07T13:16:25;0.90;99.90
50067;DHT22;35952;52.524;13.340;2024-01-07T13:18:51;0.90;99.90
50067;DHT22;35952;52.524;13.340;2024-01-07T13:21:17;0.80;99.90
50067;DHT22;35952;52.524;13.340;2024-01-07T13:23:43;1.00;99.90
50067;DHT22;35952;52.524;13.340;2024-01-07T13:26:10;1.00;99.90
50067;DHT22;35952;52.524;13.340;2024-01-07T13:28:36;1.00;99.90
50067;DHT22;35952;52.524;13.340;2024-01-07T13:31:02;1.10;99.90
50067;DHT22;35952;52.524;13.340;2024-01-07T13:33:29;1.00;99.90
50067;DHT22;35952;52.524;13.340;2024-01-07T13:35:54;1.10;99.90
50067;DHT22;35952;52.524;13.340;2024-01-07T13:38:20;1.10;99.90
50067;DHT22;35952;52.524;13.340;2024-01-07T13:40:46;1.10;99.90
50067;DHT22;35952;52.524;13.340;2024-01-07T13:43:11;1.10;99.90
50067;DHT22;35952;52.524;13.340;2024-01-07T13:45:37;1.00;99.90
50067;DHT22;35952;52.524;13.340;2024-01-07T13:48:03;0.90;99.90
50067;DHT22;35952;52.524;13.340;2024-01-07T13:50:28;1.00;99.90
50067;DHT22;35952;52.524;13.340;2024-01-07T13:52:54;1.00;99.90
50067;DHT22;35952;52.524;13.340;2024-01-07T13:55:19;1.00;99.90
50067;DHT22;35952;52.524;13.340;2024-01-07T13:57:45;0.90;99.90
50067;DHT22;35952;52.524;13.340;2024-01-07T14:00:11;0.90;99.90
50067;DHT22;35952;52.524;13.340;2024-01-07T14:02:43;1.00;99.90
50067;DHT22;35952;52.524;13.340;2024-01-07T14:05:10;1.00;99.90
50067;DHT22;35952;52.524;13.340;2024-01-07T14:07:39;0.90;99.90
50067;DHT22;35952;52.524;13.340;2024-01-07T14:10:06;1.00;99.90
50067;DHT22;35952;52.524;13.340;2024-01-07T14:12:32;0.90;99.90
50067;DHT22;35952;52.524;13.340;2024-01-07T14:14:58;0.90;99.90
50067;DHT22;35952;52.524;13.340;2024-01-07T14:17:26;0.90;99.90
50067;DHT22;35952;52.524;13.340;2024-01-07T14:19:52;0.90;99.90
50067;DHT22;35952;52.524;13.340;2024-01-07T14:22:20;0.90;99.90
50067;DHT22;35952;52.524;13.340;2024-01-07T14:24:47;0.90;99.90
50067;DHT22;35952;52.524;13.340;2024-01-07T14:27:14;0.90;99.90
50067;DHT22;35952;52.524;13.340;2024-01-07T14:29:39;0.90;99.90
50067;DHT22;35952;52.524;13.340;2024-01-07T14:32:06;0.90;99.90
50067;DHT22;35952;52.524;13.340;2024-01-07T14:34:31;0.90;99.90
50067;DHT22;35952;52.524;13.340;2024-01-07T14:36:57;0.90;99.90
50067;DHT22;35952;52.524;13.340;2024-01-07T14:39:23;0.90;99.90
50067;DHT22;35952;52.524;13.340;2024-01-07T14:41:48;0.90;99.90
50067;DHT22;35952;52.524;13.340;2024-01-07T14:44:15;0.90;99.90
50067;DHT22;35952;52.524;13.340;2024-01-07T14:46:40;0.90;99.90
50067;DHT22;35952;52.524;13.340;2024-01-07T14:49:06;0.80;99.90
50067;DHT22;35952;52.524;13.340;2024-01-07T14:51:32;0.90;99.90
50067;DHT22;35952;52.524;13.340;2024-01-07T14:53:58;1.00;99.90
50067;DHT22;35952;52.524;13.340;2024-01-07T14:56:23;1.00;99.90
50067;DHT22;35952;52.524;13.340;2024-01-07T14:58:49;1.10;99.90
50067;DHT22;35952;52.524;13.340;2024-01-07T15:01:14;1.00;99.90
50067;DHT22;35952;52.524;13.340;2024-01-07T15:03:40;1.00;99.90
50067;DHT22;35952;52.524;13.340;2024-01-07T15:06:06;1.00;99.90
50067;DHT22;35952;52.524;13.340;2024-01-07T15:08:33;0.90;99.90
50067;DHT22;35952;52.524;13.340;2024-01-07T15:10:59;1.00;99.90
50067;DHT22;35952;52.524;13.340;2024-01-07T15:13:24;1.00;99.90
50067;DHT22;35952;52.524;13.340;2024-01-07T15:15:52;0.90;99.90
50067;DHT22;35952;52.524;13.340;2024-01-07T15:18:17;0.90;99.90
50067;DHT22;35952;52.524;13.340;2024-01-07T15:20:43;0.90;99.90
50067;DHT22;35952;52.524;13.340;2024-01-07T15:23:08;0.90;99.90